Time;durP1;ratioP1;P1;durP2;ratioP2;P2;SDS_P1;SDS_P2;PMS_P1;PMS_P2;Temp;Humidity;BMP_temperature;BMP_pressure;BME280_temperature;BME280_humidity;BME280_pressure;Samples;Min_cycle;Max_cycle;Signal;HPM_P1;HPM_P2
2023/12/17 00:02:23;;;;;;;8.50;3.00;;;8.70;99.90;;;;;;5000257;28;20076;-68
2023/12/17 00:04:48;;;;;;;8.93;2.33;;;8.70;99.90;;;;;;4999237;28;20015;-67
2023/12/17 00:07:14;;;;;;;8.27;2.88;;;8.90;99.90;;;;;;4999358;28;20018;-67
2023/12/17 00:09:40;;;;;;;6.47;2.47;;;8.90;99.90;;;;;;5000057;28;20022;-67
2023/12/17 00:12:06;;;;;;;9.93;2.70;;;9.00;99.90;;;;;;4999087;28;20038;-68
2023/12/17 00:14:31;;;;;;;7.50;2.42;;;8.90;99.90;;;;;;4999827;28;20030;-67
2023/12/17 00:16:57;;;;;;;8.45;2.40;;;8.90;99.90;;;;;;4999357;28;20080;-68
2023/12/17 00:19:22;;;;;;;3.67;2.33;;;8.90;99.90;;;;;;4998686;28;20049;-68
2023/12/17 00:21:48;;;;;;;13.00;2.60;;;8.90;99.90;;;;;;4999630;28;20026;-68
2023/12/17 00:24:13;;;;;;;10.07;2.50;;;8.80;99.90;;;;;;4998913;28;20033;-67
2023/12/17 00:26:39;;;;;;;8.38;2.42;;;8.80;99.90;;;;;;4998922;28;20112;-68
2023/12/17 00:29:04;;;;;;;5.80;2.58;;;8.90;99.90;;;;;;4998868;28;20026;-67
2023/12/17 00:31:30;;;;;;;8.65;2.75;;;8.90;99.90;;;;;;4998413;28;20030;-68
2023/12/17 00:33:55;;;;;;;6.90;2.75;;;8.90;99.90;;;;;;4998783;28;20060;-68
2023/12/17 00:36:21;;;;;;;13.48;3.92;;;9.00;99.90;;;;;;4999174;28;20027;-68
2023/12/17 00:38:47;;;;;;;7.13;2.90;;;9.00;99.90;;;;;;4998387;28;20077;-68
2023/12/17 00:41:13;;;;;;;4.80;2.28;;;8.90;99.90;;;;;;4998586;28;20026;-68
2023/12/17 00:43:38;;;;;;;6.63;2.63;;;8.80;99.90;;;;;;4998533;28;20141;-68
2023/12/17 00:46:04;;;;;;;4.68;2.85;;;8.80;99.90;;;;;;4998568;28;20030;-67
2023/12/17 00:48:30;;;;;;;13.60;3.10;;;8.70;99.90;;;;;;4998358;28;20054;-68
2023/12/17 00:50:55;;;;;;;5.70;2.78;;;8.70;99.90;;;;;;4998006;28;20045;-68
2023/12/17 00:53:21;;;;;;;9.65;2.97;;;8.70;99.90;;;;;;4998509;28;20030;-68
2023/12/17 00:55:46;;;;;;;7.70;2.60;;;8.70;99.90;;;;;;4998086;28;20053;-68
2023/12/17 00:58:12;;;;;;;9.48;3.05;;;8.70;99.90;;;;;;4997660;28;20022;-67
2023/12/17 01:00:37;;;;;;;12.35;2.72;;;8.80;99.90;;;;;;4998554;28;20026;-68
2023/12/17 01:03:03;;;;;;;7.63;2.67;;;8.70;99.90;;;;;;4998174;28;20029;-67
2023/12/17 01:05:28;;;;;;;10.02;2.95;;;8.70;99.90;;;;;;4998266;28;20065;-68
2023/12/17 01:07:54;;;;;;;6.47;2.97;;;8.70;99.90;;;;;;4998096;28;20026;-68
2023/12/17 01:10:19;;;;;;;8.27;2.70;;;8.70;99.90;;;;;;4998005;28;20032;-68
2023/12/17 01:12:45;;;;;;;6.93;2.72;;;8.70;99.90;;;;;;4998547;28;20026;-68
2023/12/17 01:15:12;;;;;;;12.30;3.35;;;8.70;99.90;;;;;;4998545;28;20023;-68
2023/12/17 01:17:37;;;;;;;7.93;3.08;;;8.80;99.90;;;;;;4997635;28;20018;-68
2023/12/17 01:20:03;;;;;;;6.32;2.50;;;8.80;99.90;;;;;;4998059;28;20026;-68
2023/12/17 01:22:29;;;;;;;9.65;3.47;;;8.80;99.90;;;;;;4997969;28;20030;-68
2023/12/17 01:24:54;;;;;;;9.00;3.10;;;8.70;99.90;;;;;;4997621;28;20111;-68
2023/12/17 01:27:21;;;;;;;8.88;3.45;;;8.70;99.90;;;;;;4997753;28;20026;-68
2023/12/17 01:29:47;;;;;;;6.63;2.50;;;8.80;99.90;;;;;;4997656;28;20019;-68
2023/12/17 01:32:12;;;;;;;5.90;2.55;;;8.90;99.90;;;;;;4997387;28;20117;-68
2023/12/17 01:34:38;;;;;;;10.07;2.25;;;8.90;99.90;;;;;;4997420;28;20022;-68
2023/12/17 01:37:03;;;;;;;6.95;2.58;;;8.90;99.90;;;;;;4997515;28;20015;-68
2023/12/17 01:39:29;;;;;;;8.13;2.60;;;8.80;99.90;;;;;;4997330;28;20054;-68
2023/12/17 01:41:55;;;;;;;17.40;2.95;;;8.90;99.90;;;;;;4997577;28;20034;-68
2023/12/17 01:44:20;;;;;;;11.43;2.90;;;8.90;99.90;;;;;;4997701;28;20022;-68
2023/12/17 01:46:46;;;;;;;6.60;2.38;;;8.90;99.90;;;;;;4997229;28;20026;-68
2023/12/17 01:49:12;;;;;;;6.38;2.20;;;8.80;99.90;;;;;;4997427;28;20042;-68
2023/12/17 01:51:38;;;;;;;5.50;2.65;;;8.80;99.90;;;;;;4997675;28;20033;-66
2023/12/17 01:54:04;;;;;;;6.90;2.38;;;8.80;99.90;;;;;;4997010;28;20033;-66
2023/12/17 01:56:30;;;;;;;8.70;3.05;;;8.90;99.90;;;;;;4997329;28;20018;-66
2023/12/17 01:58:56;;;;;;;7.10;2.60;;;9.00;99.90;;;;;;4998288;28;20049;-66
2023/12/17 02:01:22;;;;;;;4.47;2.47;;;9.00;99.90;;;;;;4997044;28;20026;-66
2023/12/17 02:03:48;;;;;;;9.52;2.70;;;8.90;99.90;;;;;;4997011;28;20029;-66
2023/12/17 02:06:14;;;;;;;7.22;3.60;;;8.90;99.90;;;;;;4997507;28;20117;-66
2023/12/17 02:08:40;;;;;;;10.90;2.63;;;8.90;99.90;;;;;;4996941;28;20117;-66
2023/12/17 02:11:06;;;;;;;8.40;2.38;;;8.80;99.90;;;;;;4996800;28;20027;-66
2023/12/17 02:13:32;;;;;;;10.38;3.75;;;8.90;99.90;;;;;;4996706;28;20117;-66
2023/12/17 02:15:57;;;;;;;6.82;2.33;;;8.90;99.90;;;;;;4997222;28;20042;-66
2023/12/17 02:18:23;;;;;;;9.35;2.58;;;8.80;99.90;;;;;;4997199;28;20054;-66
2023/12/17 02:20:50;;;;;;;6.03;2.50;;;8.80;99.90;;;;;;4997671;28;20022;-66
2023/12/17 02:23:15;;;;;;;5.90;2.60;;;8.70;99.90;;;;;;4996616;28;20077;-66
2023/12/17 02:25:41;;;;;;;8.52;2.28;;;8.90;99.90;;;;;;4996843;28;20034;-68
2023/12/17 02:28:06;;;;;;;7.10;2.40;;;8.80;99.90;;;;;;4996861;28;20069;-68
2023/12/17 02:30:32;;;;;;;10.45;2.33;;;8.70;99.90;;;;;;4996849;28;20027;-68
2023/12/17 02:32:58;;;;;;;5.95;3.00;;;8.60;99.90;;;;;;4996767;28;20031;-68
2023/12/17 02:35:23;;;;;;;6.45;2.70;;;8.60;99.90;;;;;;4996652;28;20029;-69
2023/12/17 02:37:49;;;;;;;12.60;2.60;;;8.70;99.90;;;;;;4997061;28;20022;-68
2023/12/17 02:40:15;;;;;;;7.18;2.85;;;8.70;99.90;;;;;;4996821;28;20018;-66
2023/12/17 02:42:40;;;;;;;9.57;3.03;;;8.80;99.90;;;;;;4996618;28;20034;-66
2023/12/17 02:45:07;;;;;;;5.97;2.42;;;8.80;99.90;;;;;;4997007;28;20027;-66
2023/12/17 02:47:39;;;;;;;6.28;2.03;;;8.70;99.90;;;;;;4996620;28;20058;-66
2023/12/17 02:50:05;;;;;;;5.60;2.60;;;8.70;99.90;;;;;;4996423;28;20031;-66
2023/12/17 02:52:30;;;;;;;5.07;2.20;;;8.80;99.90;;;;;;4997240;28;20026;-66
2023/12/17 02:54:56;;;;;;;6.15;2.33;;;8.80;99.90;;;;;;4996370;28;20025;-68
2023/12/17 02:57:24;;;;;;;4.57;2.40;;;8.70;99.90;;;;;;4997512;28;20084;-68
2023/12/17 02:59:52;;;;;;;5.28;2.72;;;8.60;99.90;;;;;;4996446;28;20054;-68
2023/12/17 03:02:18;;;;;;;5.13;2.33;;;8.60;99.90;;;;;;4996095;28;20026;-68
2023/12/17 03:04:43;;;;;;;4.20;2.70;;;8.70;99.90;;;;;;4996553;28;20022;-69
2023/12/17 03:07:09;;;;;;;9.95;3.13;;;8.70;99.90;;;;;;4996422;28;20117;-68
2023/12/17 03:09:34;;;;;;;7.07;2.60;;;8.70;99.90;;;;;;4996606;28;20037;-69
2023/12/17 03:12:00;;;;;;;9.45;2.22;;;8.80;99.90;;;;;;4997122;28;20062;-68
2023/12/17 03:14:26;;;;;;;7.68;2.58;;;8.80;99.90;;;;;;4996377;28;20029;-66
2023/12/17 03:16:52;;;;;;;3.67;2.10;;;8.70;99.90;;;;;;4996658;28;20106;-66
2023/12/17 03:19:17;;;;;;;4.97;2.20;;;8.80;99.90;;;;;;4996631;28;20026;-66
2023/12/17 03:21:43;;;;;;;13.73;2.67;;;8.70;99.90;;;;;;4999041;28;20044;-66
2023/12/17 03:24:08;;;;;;;5.72;2.78;;;8.70;99.90;;;;;;5000897;28;20030;-66
2023/12/17 03:26:34;;;;;;;5.53;2.25;;;8.70;99.90;;;;;;4999878;28;20026;-66
2023/12/17 03:28:59;;;;;;;6.00;2.20;;;8.70;99.90;;;;;;4999594;28;20030;-66
2023/12/17 03:31:25;;;;;;;6.05;2.85;;;8.70;99.90;;;;;;5000487;28;20026;-66
2023/12/17 03:33:50;;;;;;;5.10;2.58;;;8.70;99.90;;;;;;4999571;28;20033;-66
2023/12/17 03:36:16;;;;;;;4.88;1.92;;;8.60;99.90;;;;;;4999788;28;20110;-66
2023/12/17 03:38:44;;;;;;;5.80;2.47;;;8.70;99.90;;;;;;4999438;28;20194;-66
2023/12/17 03:41:24;;;;;;;8.02;2.60;;;8.70;99.90;;;;;;5000361;28;20026;-66
2023/12/17 03:43:51;;;;;;;5.75;2.40;;;8.70;99.90;;;;;;4999519;28;20117;-66
2023/12/17 03:46:18;;;;;;;5.07;2.20;;;8.70;99.90;;;;;;4999368;28;20027;-66
2023/12/17 03:48:43;;;;;;;5.40;2.40;;;8.70;99.90;;;;;;4999787;28;20034;-66
2023/12/17 03:51:09;;;;;;;5.22;2.42;;;8.70;99.90;;;;;;5000049;28;20035;-66
2023/12/17 03:53:34;;;;;;;7.10;2.42;;;8.70;99.90;;;;;;4999075;28;20026;-66
2023/12/17 03:56:00;;;;;;;9.10;2.80;;;8.80;99.90;;;;;;4999432;28;20026;-66
2023/12/17 03:58:27;;;;;;;4.88;3.13;;;8.80;99.90;;;;;;4999665;28;20022;-65
2023/12/17 04:00:53;;;;;;;13.10;2.88;;;8.80;99.90;;;;;;4999673;28;20045;-66
2023/12/17 04:03:19;;;;;;;7.45;2.55;;;8.80;99.90;;;;;;4998918;28;20026;-66
2023/12/17 04:05:44;;;;;;;5.43;2.25;;;8.70;99.90;;;;;;4999174;28;20090;-66
2023/12/17 04:08:10;;;;;;;4.10;2.10;;;8.70;99.90;;;;;;4999940;28;20033;-68
2023/12/17 04:10:35;;;;;;;7.40;1.83;;;8.60;99.90;;;;;;4998873;28;20026;-68
2023/12/17 04:13:01;;;;;;;4.13;2.15;;;8.70;99.90;;;;;;5000094;28;20105;-68
2023/12/17 04:15:26;;;;;;;3.80;2.40;;;8.70;99.90;;;;;;4999866;28;20030;-66
2023/12/17 04:17:52;;;;;;;6.25;2.55;;;8.70;99.90;;;;;;5000004;28;20023;-66
2023/12/17 04:20:18;;;;;;;4.63;2.28;;;8.60;99.90;;;;;;4999092;28;20029;-66
2023/12/17 04:22:43;;;;;;;3.13;1.98;;;8.70;99.90;;;;;;4999639;28;20116;-66
2023/12/17 04:25:09;;;;;;;4.55;2.47;;;8.60;99.90;;;;;;4998945;28;20073;-66
2023/12/17 04:27:35;;;;;;;7.50;2.40;;;8.70;99.90;;;;;;4999457;28;20053;-66
2023/12/17 04:30:00;;;;;;;4.25;2.00;;;8.70;99.90;;;;;;4998758;28;20057;-66
2023/12/17 04:32:26;;;;;;;7.35;2.13;;;8.70;99.90;;;;;;4998821;28;20030;-66
2023/12/17 04:34:55;;;;;;;3.75;2.22;;;8.70;99.90;;;;;;4998472;28;20022;-66
2023/12/17 04:37:21;;;;;;;3.92;2.30;;;8.70;99.90;;;;;;4998388;28;20049;-66
2023/12/17 04:39:47;;;;;;;3.53;2.10;;;8.70;99.90;;;;;;4999321;28;20026;-66
2023/12/17 04:42:13;;;;;;;4.45;1.92;;;8.70;99.90;;;;;;4999015;28;20034;-66
2023/12/17 04:44:38;;;;;;;7.30;2.10;;;8.60;99.90;;;;;;4998494;28;20022;-66
2023/12/17 04:47:04;;;;;;;3.08;1.98;;;8.60;99.90;;;;;;4998755;28;20108;-66
2023/12/17 04:49:30;;;;;;;4.28;2.45;;;8.50;99.90;;;;;;4998305;28;20031;-66
2023/12/17 04:51:55;;;;;;;3.03;2.45;;;8.50;99.90;;;;;;4998904;28;20023;-66
2023/12/17 04:54:21;;;;;;;3.05;1.65;;;8.50;99.90;;;;;;4998056;28;20030;-66
2023/12/17 04:56:46;;;;;;;3.67;2.40;;;8.50;99.90;;;;;;4999165;28;20033;-67
2023/12/17 04:59:12;;;;;;;4.60;2.47;;;8.60;99.90;;;;;;4998045;28;20033;-67
2023/12/17 05:01:37;;;;;;;4.38;2.30;;;8.40;99.90;;;;;;4998024;28;20019;-67
2023/12/17 05:04:03;;;;;;;4.93;2.92;;;8.40;99.90;;;;;;4998081;28;20034;-67
2023/12/17 05:06:29;;;;;;;8.13;2.70;;;8.40;99.90;;;;;;4999054;28;20026;-67
2023/12/17 05:08:54;;;;;;;5.93;2.65;;;8.40;99.90;;;;;;4998526;28;20022;-67
2023/12/17 05:11:20;;;;;;;4.20;2.20;;;8.40;99.90;;;;;;4997723;28;20061;-67
2023/12/17 05:13:45;;;;;;;3.65;2.22;;;8.40;99.90;;;;;;4998668;28;20042;-67
2023/12/17 05:16:11;;;;;;;5.50;3.22;;;8.40;99.90;;;;;;4997800;28;20037;-67
2023/12/17 05:18:36;;;;;;;9.25;2.42;;;8.40;99.90;;;;;;4998282;28;20113;-67
2023/12/17 05:21:02;;;;;;;5.53;2.08;;;8.30;99.90;;;;;;4997908;28;20030;-67
2023/12/17 05:23:27;;;;;;;3.55;1.58;;;8.30;99.90;;;;;;4997611;28;20026;-67
2023/12/17 05:25:53;;;;;;;3.55;1.65;;;8.30;99.90;;;;;;4998904;28;20042;-67
2023/12/17 05:28:18;;;;;;;3.20;2.22;;;8.30;99.90;;;;;;4997842;28;20027;-67
2023/12/17 05:30:45;;;;;;;3.67;2.05;;;8.30;99.90;;;;;;4997419;28;20018;-68
2023/12/17 05:33:11;;;;;;;5.82;2.63;;;8.30;99.90;;;;;;4998294;28;20050;-67
2023/12/17 05:35:36;;;;;;;3.65;2.25;;;8.30;99.90;;;;;;4998255;28;20033;-68
2023/12/17 05:38:02;;;;;;;4.57;2.17;;;8.40;99.90;;;;;;4997182;28;20033;-67
2023/12/17 05:40:27;;;;;;;5.75;2.15;;;8.40;99.90;;;;;;4997228;28;20050;-67
2023/12/17 05:42:53;;;;;;;3.42;2.25;;;8.40;99.90;;;;;;4997020;28;20053;-68
2023/12/17 05:45:18;;;;;;;8.68;3.05;;;8.40;99.90;;;;;;4997451;28;20040;-67
2023/12/17 05:47:45;;;;;;;6.47;3.33;;;8.30;99.90;;;;;;4997615;28;20019;-67
2023/12/17 05:50:11;;;;;;;9.57;3.25;;;8.10;99.90;;;;;;5025328;22;20038;-71
2023/12/17 05:52:36;;;;;;;5.80;3.40;;;8.00;99.90;;;;;;5017621;28;20030;-71
2023/12/17 05:55:03;;;;;;;3.95;1.80;;;7.90;99.90;;;;;;5033169;28;20040;-71
2023/12/17 05:57:28;;;;;;;3.78;2.28;;;8.00;99.90;;;;;;5017633;28;20022;-66
2023/12/17 05:59:54;;;;;;;4.65;2.60;;;8.20;99.90;;;;;;5016472;28;20026;-66
2023/12/17 06:02:19;;;;;;;11.60;3.67;;;8.20;99.90;;;;;;5016633;28;20030;-70
2023/12/17 06:04:45;;;;;;;6.93;3.58;;;7.80;99.90;;;;;;5017336;28;20072;-70
2023/12/17 06:07:10;;;;;;;9.48;3.90;;;7.50;99.90;;;;;;5017444;28;20084;-71
2023/12/17 06:09:36;;;;;;;8.07;3.75;;;7.60;99.90;;;;;;5017895;28;20104;-71
2023/12/17 06:12:01;;;;;;;8.65;3.92;;;7.50;99.90;;;;;;5016588;28;20037;-70
2023/12/17 06:14:28;;;;;;;8.05;4.53;;;7.50;99.90;;;;;;5017419;28;20025;-70
2023/12/17 06:16:53;;;;;;;10.48;4.13;;;7.50;99.90;;;;;;5017567;28;20026;-70
2023/12/17 06:19:19;;;;;;;11.10;3.65;;;7.60;99.90;;;;;;5017270;28;20076;-70
2023/12/17 06:21:45;;;;;;;9.43;3.88;;;7.60;99.90;;;;;;5017568;28;20033;-70
2023/12/17 06:24:10;;;;;;;10.77;4.03;;;7.50;99.90;;;;;;5017226;28;20032;-70
2023/12/17 06:26:36;;;;;;;10.02;3.83;;;7.70;99.90;;;;;;5016341;28;20029;-70
2023/12/17 06:29:01;;;;;;;17.13;6.20;;;7.80;99.90;;;;;;5017296;28;20026;-70
2023/12/17 06:31:27;;;;;;;8.57;4.28;;;7.80;99.90;;;;;;5017010;28;20030;-70
2023/12/17 06:33:55;;;;;;;7.45;3.85;;;7.80;99.90;;;;;;5017222;28;20022;-70
2023/12/17 06:36:22;;;;;;;24.67;8.85;;;7.80;99.90;;;;;;5016256;28;20054;-66
2023/12/17 06:38:47;;;;;;;10.32;5.47;;;7.90;99.90;;;;;;5016532;28;20093;-66
2023/12/17 06:41:13;;;;;;;6.80;4.10;;;7.90;99.90;;;;;;5016719;28;20061;-64
2023/12/17 06:43:42;;;;;;;12.68;4.78;;;7.90;99.90;;;;;;5016973;28;20034;-65
2023/12/17 06:46:09;;;;;;;10.65;5.57;;;8.00;99.90;;;;;;5016092;28;20030;-66
2023/12/17 06:48:35;;;;;;;12.32;5.50;;;7.90;99.90;;;;;;5017073;28;20029;-66
2023/12/17 06:51:01;;;;;;;16.13;6.85;;;7.70;99.90;;;;;;5016522;28;20073;-71
2023/12/17 06:53:27;;;;;;;18.35;6.78;;;7.70;99.90;;;;;;5017277;28;20079;-72
2023/12/17 06:55:52;;;;;;;10.32;5.40;;;7.60;99.90;;;;;;5017706;28;20025;-71
2023/12/17 06:58:18;;;;;;;19.55;6.82;;;7.50;99.90;;;;;;5019912;28;20052;-71
2023/12/17 07:00:43;;;;;;;11.32;6.13;;;7.40;99.90;;;;;;5019789;28;20029;-64
2023/12/17 07:03:09;;;;;;;20.23;6.70;;;7.20;99.90;;;;;;5020065;28;20018;-66
2023/12/17 07:05:34;;;;;;;15.95;6.47;;;7.00;99.90;;;;;;5020091;28;20072;-66
2023/12/17 07:07:59;;;;;;;13.00;6.07;;;7.10;99.90;;;;;;5020499;28;20033;-66
2023/12/17 07:10:25;;;;;;;14.43;6.90;;;6.90;99.90;;;;;;5019578;28;20021;-66
2023/12/17 07:12:51;;;;;;;21.13;6.93;;;6.80;99.90;;;;;;5020316;28;20049;-66
2023/12/17 07:15:16;;;;;;;19.40;7.15;;;6.70;99.90;;;;;;5019512;28;20018;-66
2023/12/17 07:17:43;;;;;;;15.73;6.88;;;6.60;99.90;;;;;;5020327;28;20033;-66
2023/12/17 07:20:10;;;;;;;18.27;6.55;;;6.80;99.90;;;;;;5019446;28;20089;-66
2023/12/17 07:22:36;;;;;;;16.80;7.47;;;7.10;99.90;;;;;;5019281;28;20029;-66
2023/12/17 07:25:02;;;;;;;21.85;7.47;;;6.90;99.90;;;;;;5019436;28;20033;-71
2023/12/17 07:27:28;;;;;;;20.55;7.30;;;6.80;99.90;;;;;;5020085;28;20026;-70
2023/12/17 07:29:53;;;;;;;15.40;7.18;;;6.60;99.90;;;;;;5019286;28;20080;-70
2023/12/17 07:32:19;;;;;;;14.90;7.15;;;6.80;99.90;;;;;;5020179;28;20029;-70
2023/12/17 07:34:45;;;;;;;17.77;7.53;;;6.90;99.90;;;;;;5019507;28;20104;-70
2023/12/17 07:37:11;;;;;;;20.73;7.45;;;7.00;99.90;;;;;;5019287;28;20014;-70
2023/12/17 07:39:36;;;;;;;16.00;7.18;;;6.80;99.90;;;;;;5020022;28;20105;-70
2023/12/17 07:42:02;;;;;;;18.95;8.45;;;6.90;99.90;;;;;;5019005;28;20037;-70
2023/12/17 07:44:29;;;;;;;13.73;7.22;;;6.80;99.90;;;;;;5019971;28;20025;-70
2023/12/17 07:46:54;;;;;;;23.60;8.73;;;6.70;99.90;;;;;;5020122;28;20045;-70
2023/12/17 07:49:20;;;;;;;20.50;7.70;;;6.60;99.90;;;;;;5019804;28;20030;-70
2023/12/17 07:51:46;;;;;;;20.15;8.65;;;6.50;99.90;;;;;;5018687;28;20030;-70
2023/12/17 07:54:11;;;;;;;19.83;8.15;;;6.50;99.90;;;;;;5019643;28;20018;-70
2023/12/17 07:56:37;;;;;;;23.13;9.02;;;6.50;99.90;;;;;;5019728;28;20018;-70
2023/12/17 07:59:02;;;;;;;23.02;8.57;;;6.50;99.90;;;;;;5018752;28;20087;-70
2023/12/17 08:01:32;;;;;;;28.90;8.90;;;6.40;99.90;;;;;;5019482;28;20078;-70
2023/12/17 08:03:57;;;;;;;24.70;9.27;;;6.20;99.90;;;;;;5019620;28;20030;-70
2023/12/17 08:06:26;;;;;;;23.08;8.65;;;6.10;99.90;;;;;;5018494;28;20066;-70
2023/12/17 08:08:56;;;;;;;24.02;9.18;;;6.10;99.90;;;;;;5018968;28;20050;-70
2023/12/17 08:11:21;;;;;;;22.42;8.82;;;6.10;99.90;;;;;;5019473;28;20026;-70
2023/12/17 08:13:48;;;;;;;24.63;9.80;;;5.90;99.90;;;;;;5018484;28;20072;-70
2023/12/17 08:16:13;;;;;;;24.60;8.60;;;5.90;99.90;;;;;;5018668;28;20022;-70
2023/12/17 08:18:39;;;;;;;29.42;9.98;;;6.00;99.90;;;;;;5018769;28;20088;-66
2023/12/17 08:21:05;;;;;;;23.27;10.07;;;6.00;99.90;;;;;;5019193;28;20032;-66
2023/12/17 08:23:30;;;;;;;23.33;8.85;;;6.10;99.90;;;;;;5019187;28;20033;-66
2023/12/17 08:25:56;;;;;;;24.45;9.60;;;6.20;99.90;;;;;;5019106;28;20032;-66
2023/12/17 08:28:22;;;;;;;26.15;9.73;;;6.30;99.90;;;;;;5018326;28;20053;-66
2023/12/17 08:30:48;;;;;;;38.03;10.18;;;6.40;99.90;;;;;;5018884;28;20045;-65
2023/12/17 08:33:15;;;;;;;30.17;9.50;;;6.10;99.90;;;;;;5018936;28;20022;-70
2023/12/17 08:35:44;;;;;;;27.17;9.90;;;6.20;99.90;;;;;;5018092;28;20052;-70
2023/12/17 08:38:10;;;;;;;24.50;8.55;;;6.30;99.90;;;;;;5018928;28;20014;-63
2023/12/17 08:40:37;;;;;;;34.85;11.23;;;6.20;99.90;;;;;;5018449;28;20037;-64
2023/12/17 08:43:04;;;;;;;27.33;10.25;;;6.20;99.90;;;;;;5018851;28;20068;-64
2023/12/17 08:45:30;;;;;;;30.88;10.02;;;6.10;99.90;;;;;;5018795;28;20072;-71
2023/12/17 08:47:56;;;;;;;28.98;10.43;;;6.20;99.90;;;;;;5019035;28;20052;-71
2023/12/17 08:50:22;;;;;;;22.38;9.30;;;6.40;99.90;;;;;;5018489;28;20037;-65
2023/12/17 08:52:47;;;;;;;22.88;10.05;;;6.40;99.90;;;;;;5017669;28;20029;-65
2023/12/17 08:55:13;;;;;;;18.90;8.50;;;6.50;99.90;;;;;;5017793;28;20084;-66
2023/12/17 08:57:38;;;;;;;28.38;10.55;;;6.60;99.90;;;;;;5018424;28;20022;-66
2023/12/17 09:00:05;;;;;;;24.02;8.95;;;6.70;99.90;;;;;;5017927;28;20021;-64
2023/12/17 09:02:31;;;;;;;24.60;10.10;;;6.50;99.90;;;;;;5017505;28;20033;-65
2023/12/17 09:04:57;;;;;;;27.90;10.30;;;6.50;99.90;;;;;;5017506;28;20042;-64
2023/12/17 09:07:23;;;;;;;30.80;11.02;;;6.50;99.90;;;;;;5017754;28;20026;-64
2023/12/17 09:09:49;;;;;;;32.58;10.82;;;6.50;99.90;;;;;;5017557;28;20122;-64
2023/12/17 09:12:16;;;;;;;25.42;9.73;;;6.60;99.90;;;;;;5018248;28;20058;-65
2023/12/17 09:14:41;;;;;;;28.63;11.35;;;6.40;99.90;;;;;;5018257;28;20018;-64
2023/12/17 09:17:07;;;;;;;29.00;10.48;;;6.30;99.90;;;;;;5017564;28;20029;-64
2023/12/17 09:19:33;;;;;;;31.33;10.85;;;6.40;99.90;;;;;;5017952;28;20029;-64
2023/12/17 09:21:59;;;;;;;25.35;10.00;;;6.50;99.90;;;;;;5018145;28;20034;-65
2023/12/17 09:24:25;;;;;;;28.92;11.50;;;6.40;99.90;;;;;;5018064;28;20048;-64
2023/12/17 09:26:50;;;;;;;33.60;11.55;;;6.40;99.90;;;;;;5017435;28;20097;-66
2023/12/17 09:29:16;;;;;;;31.40;12.02;;;6.40;99.90;;;;;;5017922;28;20036;-65
2023/12/17 09:31:41;;;;;;;26.58;10.85;;;6.30;99.90;;;;;;5018348;28;20037;-66
2023/12/17 09:34:07;;;;;;;35.70;11.98;;;6.40;99.90;;;;;;5016987;28;20018;-70
2023/12/17 09:36:33;;;;;;;31.10;11.93;;;6.30;99.90;;;;;;5016977;28;20033;-71
2023/12/17 09:38:58;;;;;;;34.97;12.27;;;6.00;99.90;;;;;;5017186;28;20022;-70
2023/12/17 09:41:25;;;;;;;34.53;11.82;;;6.00;99.90;;;;;;5017930;28;20022;-71
2023/12/17 09:43:51;;;;;;;32.95;12.45;;;6.20;99.90;;;;;;5016537;28;20030;-71
2023/12/17 09:46:17;;;;;;;24.80;10.70;;;6.20;99.90;;;;;;5017032;28;20025;-72
2023/12/17 09:48:43;;;;;;;26.40;11.57;;;6.50;99.90;;;;;;5017584;28;20171;-72
2023/12/17 09:51:10;;;;;;;23.45;11.23;;;6.30;99.90;;;;;;5017399;28;20085;-72
2023/12/17 09:53:35;;;;;;;29.45;12.05;;;6.30;99.90;;;;;;5016632;28;20033;-72
2023/12/17 09:56:01;;;;;;;25.98;10.20;;;6.40;99.90;;;;;;5017460;28;20018;-70
2023/12/17 09:58:27;;;;;;;28.48;12.23;;;6.60;99.90;;;;;;5016654;28;20022;-70
2023/12/17 10:00:53;;;;;;;24.55;10.45;;;6.70;99.90;;;;;;5016751;28;20029;-65
2023/12/17 10:03:20;;;;;;;26.20;10.57;;;6.40;99.90;;;;;;5017389;28;20166;-66
2023/12/17 10:05:50;;;;;;;23.38;9.77;;;6.50;99.90;;;;;;5017347;28;20021;-65
2023/12/17 10:08:16;;;;;;;23.13;11.02;;;6.40;99.90;;;;;;5017525;28;20030;-70
2023/12/17 10:10:41;;;;;;;20.85;9.95;;;6.50;99.90;;;;;;5016520;28;20077;-70
2023/12/17 10:13:08;;;;;;;26.05;10.63;;;6.60;99.90;;;;;;5016286;28;20049;-70
2023/12/17 10:15:37;;;;;;;26.05;10.30;;;6.50;99.90;;;;;;5016497;28;20029;-70
2023/12/17 10:18:04;;;;;;;28.20;12.43;;;6.20;99.90;;;;;;5017396;28;20053;-65
2023/12/17 10:20:30;;;;;;;27.20;10.82;;;6.10;99.90;;;;;;5017167;28;20037;-65
2023/12/17 10:23:02;;;;;;;32.42;12.25;;;6.10;99.90;;;;;;5017229;28;20049;-65
2023/12/17 10:25:28;;;;;;;27.25;10.68;;;6.20;99.90;;;;;;5017795;28;20113;-65
2023/12/17 10:27:59;;;;;;;20.80;9.90;;;6.30;99.90;;;;;;5017132;28;20022;-65
2023/12/17 10:30:30;;;;;;;25.37;10.43;;;6.40;99.90;;;;;;5016959;28;20017;-65
2023/12/17 10:32:57;;;;;;;25.57;10.97;;;6.40;99.90;;;;;;5021261;28;20022;-71
2023/12/17 10:35:25;;;;;;;27.17;10.25;;;6.40;99.90;;;;;;5020543;28;20025;-71
2023/12/17 10:38:00;;;;;;;28.38;10.25;;;6.40;99.90;;;;;;5021478;28;20053;-65
2023/12/17 10:40:27;;;;;;;25.02;8.95;;;6.50;99.90;;;;;;5020424;28;20089;-70
2023/12/17 10:42:55;;;;;;;27.10;9.05;;;6.60;99.90;;;;;;5021031;28;20053;-70
2023/12/17 10:45:21;;;;;;;24.27;9.60;;;6.70;99.90;;;;;;5021077;28;20022;-70
2023/12/17 10:47:56;;;;;;;24.73;9.88;;;6.70;99.90;;;;;;5019959;28;20022;-71
2023/12/17 10:50:23;;;;;;;27.35;9.60;;;6.70;99.90;;;;;;5019768;28;20081;-71
2023/12/17 10:52:50;;;;;;;28.65;9.57;;;6.70;99.90;;;;;;5020572;28;20033;-71
2023/12/17 10:55:16;;;;;;;25.83;10.48;;;6.70;99.90;;;;;;5020614;28;20045;-71
2023/12/17 10:57:57;;;;;;;28.35;10.68;;;6.80;99.90;;;;;;5019855;28;20025;-70
2023/12/17 11:00:26;;;;;;;36.35;10.77;;;6.70;99.90;;;;;;5020651;28;20045;-71
2023/12/17 11:02:55;;;;;;;27.30;10.02;;;6.60;99.90;;;;;;5020647;28;20026;-72
2023/12/17 11:05:21;;;;;;;27.85;11.23;;;6.50;99.90;;;;;;5020532;28;20026;-71
2023/12/17 11:07:46;;;;;;;32.95;10.48;;;6.30;99.90;;;;;;5019598;28;20017;-70
2023/12/17 11:10:13;;;;;;;30.48;12.55;;;6.30;99.90;;;;;;5019923;28;20022;-70
2023/12/17 11:12:39;;;;;;;29.08;9.60;;;6.40;99.90;;;;;;5020327;28;20026;-70
2023/12/17 11:15:06;;;;;;;25.45;9.85;;;6.40;99.90;;;;;;5019732;28;20112;-70
2023/12/17 11:17:32;;;;;;;32.25;10.20;;;6.70;99.90;;;;;;5019516;28;20025;-70
2023/12/17 11:20:02;;;;;;;28.27;10.50;;;6.60;99.90;;;;;;5020035;28;20029;-70
2023/12/17 11:22:28;;;;;;;30.83;9.85;;;6.50;99.90;;;;;;5020360;28;20080;-70
2023/12/17 11:24:58;;;;;;;25.50;10.18;;;6.40;99.90;;;;;;5020445;28;20030;-70
2023/12/17 11:27:25;;;;;;;24.83;9.80;;;6.50;99.90;;;;;;5020466;28;20026;-70
2023/12/17 11:29:55;;;;;;;22.67;9.73;;;6.60;99.90;;;;;;5020137;28;20058;-70
2023/12/17 11:32:22;;;;;;;20.88;9.23;;;6.50;99.90;;;;;;5020091;28;20108;-70
2023/12/17 11:34:49;;;;;;;25.63;9.75;;;6.50;99.90;;;;;;5019556;28;20026;-69
2023/12/17 11:37:19;;;;;;;26.33;9.32;;;6.60;99.90;;;;;;5019183;28;20033;-70
2023/12/17 11:39:49;;;;;;;21.90;9.10;;;6.50;99.90;;;;;;5018887;28;20022;-70
2023/12/17 11:42:18;;;;;;;25.73;9.80;;;6.50;99.90;;;;;;5019860;28;20097;-70
2023/12/17 11:44:45;;;;;;;28.90;9.07;;;6.30;99.90;;;;;;5019814;28;20038;-70
2023/12/17 11:47:12;;;;;;;25.00;9.60;;;6.40;99.90;;;;;;5019065;28;20025;-70
2023/12/17 11:49:38;;;;;;;22.02;9.00;;;6.40;99.90;;;;;;5019749;28;20037;-70
2023/12/17 11:52:13;;;;;;;26.20;10.43;;;6.30;99.90;;;;;;5019588;28;20034;-70
2023/12/17 11:54:41;;;;;;;21.60;8.70;;;6.50;99.90;;;;;;5019822;28;20018;-70
2023/12/17 11:57:25;;;;;;;27.05;9.05;;;6.50;99.90;;;;;;5019679;28;20102;-70
2023/12/17 11:59:51;;;;;;;31.25;9.60;;;6.40;99.90;;;;;;5019818;28;20105;-70
2023/12/17 12:02:18;;;;;;;29.52;9.25;;;6.30;99.90;;;;;;5018764;28;20045;-71
2023/12/17 12:04:45;;;;;;;23.80;8.65;;;6.40;99.90;;;;;;5019659;28;20022;-71
2023/12/17 12:07:17;;;;;;;20.98;8.27;;;6.60;99.90;;;;;;5019698;28;20085;-71
2023/12/17 12:09:44;;;;;;;21.23;8.30;;;6.70;99.90;;;;;;5019640;28;20095;-70
2023/12/17 12:12:24;;;;;;;24.35;8.55;;;6.80;99.90;;;;;;5019532;28;20025;-70
2023/12/17 12:14:50;;;;;;;19.75;7.47;;;6.90;99.90;;;;;;5018656;28;20041;-70
2023/12/17 12:17:44;;;;;;;21.80;8.57;;;6.90;99.90;;;;;;5019281;28;20026;-71
2023/12/17 12:20:13;;;;;;;22.00;7.80;;;7.10;99.90;;;;;;5019446;28;20026;-70
2023/12/17 12:22:42;;;;;;;18.55;8.18;;;7.10;99.90;;;;;;5019353;28;20030;-70
2023/12/17 12:25:08;;;;;;;16.00;6.90;;;7.20;99.90;;;;;;5019210;28;20081;-70
2023/12/17 12:27:34;;;;;;;16.48;7.35;;;7.30;99.90;;;;;;5019106;28;20053;-70
2023/12/17 12:29:59;;;;;;;24.60;8.13;;;7.20;99.90;;;;;;5019056;28;20029;-70
2023/12/17 12:32:34;;;;;;;18.90;6.65;;;7.10;99.90;;;;;;5018967;28;20030;-70
2023/12/17 12:35:00;;;;;;;23.20;7.90;;;7.00;99.90;;;;;;5019281;28;20022;-69
2023/12/17 12:37:33;;;;;;;20.58;7.68;;;6.90;99.90;;;;;;5018321;28;20018;-70
2023/12/17 12:40:00;;;;;;;21.52;6.80;;;6.90;99.90;;;;;;5019038;28;20044;-69
2023/12/17 12:42:25;;;;;;;19.77;7.18;;;6.80;99.90;;;;;;5018775;28;20021;-69
2023/12/17 12:44:51;;;;;;;24.23;8.05;;;6.80;99.90;;;;;;5018817;28;20101;-69
2023/12/17 12:47:16;;;;;;;22.13;8.43;;;6.70;99.90;;;;;;5018270;28;20030;-69